Address 0x58ae17ae8761a6e4aca59803fa99788d22e9156a 3

Overview

Balance:
72.150494186093766501 AVAX

AVAX Value:
$1,246.76 (@ $17.28/AVAX)
Txn Hash Method
Block
From
To
Value [Txn Fee]
0x8e3e0eccec183c75852baaffe452b9a86519a864bc5f6b2b62570b484e4c4095Swap Exact Token...158698682022-06-11 1:44:5119 days 2 hrs ago0x58ae17ae8761a6e4aca59803fa99788d22e9156aOUT Trader Joe: Router0 AVAX0.003794535 26.5
0x1d70bff8cbd275c496857393c4a69a45b27faf4e9c913d705d5f4871d062bb96Swap Exact Token...158696792022-06-11 1:38:3319 days 2 hrs ago0x58ae17ae8761a6e4aca59803fa99788d22e9156aOUT SushiSwap: Router0 AVAX0.005306201 26.5
0x634d9c8bd51f10709a398a1e41f2de79d994e2b5ca879cae8f335ba40ddd7840Approve158696632022-06-11 1:38:0119 days 2 hrs ago0x58ae17ae8761a6e4aca59803fa99788d22e9156aOUT Wonderland: wMEMO0 AVAX0.001230448 26.5
0xe19c0452e1d5d14e525ea8e786677bb1826ad6414eebf3bc3886223c330c009dWrap158691002022-06-11 1:19:0419 days 2 hrs ago0x58ae17ae8761a6e4aca59803fa99788d22e9156aOUT Wonderland: wMEMO0 AVAX0.00246162 30
0xc6adf4787cc529db827bc7412399ea59bbc88349ec76440db48b31a95dd48b8eApprove158690182022-06-11 1:16:1619 days 3 hrs ago0x58ae17ae8761a6e4aca59803fa99788d22e9156aOUT Wonderland: MEMOries Token0 AVAX0.001392 30
0x9a519161066df50b108c77f3f63f0483dab0ea125dd4d6ce8e5e952ab3e5f58cApprove158687292022-06-11 1:06:2619 days 3 hrs ago0x58ae17ae8761a6e4aca59803fa99788d22e9156aOUT Wonderland: MEMOries Token0 AVAX0.001392 30
0x17c56e3df176e54b31bb6fd6488efa92351ec12e4bd723877b47b5cb12c81bdd0x5f575529158687032022-06-11 1:05:3419 days 3 hrs ago0x58ae17ae8761a6e4aca59803fa99788d22e9156aOUT 0x1a1ec25dc08e98e5e93f1104b5e5cdd298707d310 AVAX0.008325693 27
0x8c6a078a6c93bb79d90b656afe11fbdcae5a8303ffc1c7ebd26d5914de8e9d5eApprove158687032022-06-11 1:05:3419 days 3 hrs ago0x58ae17ae8761a6e4aca59803fa99788d22e9156aOUT 0x542fa0b261503333b90fe60c78f2beed16b7b7fd0 AVAX0.001276047 27
0x12932daa145e307b387978496e46ad719c3570571c27b360bb3442240a9cec42Remove Liquidity...158686802022-06-11 1:04:4819 days 3 hrs ago0x58ae17ae8761a6e4aca59803fa99788d22e9156aOUT Trader Joe: Router0 AVAX0.0076486685 26.5
0x7ebc3f6ec5ba8e951f8514ad992121373b8913b4cb3431dba5d72d1357c48f66Leave158686142022-06-11 1:02:3519 days 3 hrs ago0x58ae17ae8761a6e4aca59803fa99788d22e9156aOUT 0x57319d41f71e81f3c65f2a47ca4e001ebafd4f330 AVAX0.001418916 26.5
0x87140cbac164ad6f3bb592064764be5464fe2d395fe807fe855f274779faf7b6Withdraw158675472022-06-11 0:26:5719 days 3 hrs ago0x58ae17ae8761a6e4aca59803fa99788d22e9156aOUT Trader Joe: xJOE Farm0 AVAX0.0042463865 26.5
0x2f9e83a370c872fcb57c61a97b1d946978dd541886552ecda7cf6482a08a7302Deposit158675262022-06-11 0:26:1419 days 3 hrs ago0x58ae17ae8761a6e4aca59803fa99788d22e9156aOUT Trader Joe: xJOE Farm0 AVAX0.0036231595 26.5
0x014e18c3cfa2098d02f356cb247f75b2d97e64f3fc2fa0c5960f6b32d679b71bDeposit158675092022-06-11 0:25:3919 days 3 hrs ago0x58ae17ae8761a6e4aca59803fa99788d22e9156aOUT Trader Joe: xJOE Farm0 AVAX0.003892974687 26.825346
0x7cf66ae2d5b4394ed4a1b582f563e1b978fc54454f30e2d0bc295a947e868856Withdraw158674782022-06-11 0:24:3819 days 3 hrs ago0x58ae17ae8761a6e4aca59803fa99788d22e9156aOUT 0x188bed1968b795d5c9022f6a0bb5931ac4c18f000 AVAX0.007654984255 27.082430012
0xa4ec656cd38df7f534f7bbd80e90b0d376bc60d709e4883ee8d95d5b21dbca20Deposit158674652022-06-11 0:24:1019 days 3 hrs ago0x58ae17ae8761a6e4aca59803fa99788d22e9156aOUT 0x188bed1968b795d5c9022f6a0bb5931ac4c18f000 AVAX0.007047301844 27.213232025
0xa9473caf11efefa41767ac42218d9e3450e62be618f429c3cd020b8aa4e077f4Deposit104207492022-02-03 6:58:19146 days 21 hrs ago0x58ae17ae8761a6e4aca59803fa99788d22e9156aOUT Trader Joe: xJOE Farm0 AVAX0.004695625 25
0x9e7f2bf941f32e7db1a07e8d5ef2fefa3a853d1b9c73e017b1fca3769dc2e793Enter104207212022-02-03 6:57:20146 days 21 hrs ago0x58ae17ae8761a6e4aca59803fa99788d22e9156aOUT 0x57319d41f71e81f3c65f2a47ca4e001ebafd4f330 AVAX0.001948875 25
0xaa84965545b9c14d526b6e95b982790d9b9548699d46bfd22ebe17a6b81a8f6fDeposit104206932022-02-03 6:56:26146 days 21 hrs ago0x58ae17ae8761a6e4aca59803fa99788d22e9156aOUT Trader Joe: xJOE Farm0 AVAX0.003985425 25
0x9b7381a47d9020007e2d526c92c87c0b90f19d75f1fa6a23c502824eac07f2aeDeposit104206622022-02-03 6:55:28146 days 21 hrs ago0x58ae17ae8761a6e4aca59803fa99788d22e9156aOUT 0x188bed1968b795d5c9022f6a0bb5931ac4c18f000 AVAX0.006545375 25
0x7953595263cfe88c43fc72b3ad15a293769d03b1d7839b03d4280871f8fe5b61Deposit91083712022-01-04 3:26:59177 days 51 mins ago0x58ae17ae8761a6e4aca59803fa99788d22e9156aOUT Trader Joe: xJOE Farm0 AVAX0.004695625 25
0x062b23cb5a27f7288ab64c8808de760c55890a0d12cda03ae8e351248c02ad36Enter91083262022-01-04 3:25:31177 days 53 mins ago0x58ae17ae8761a6e4aca59803fa99788d22e9156aOUT 0x57319d41f71e81f3c65f2a47ca4e001ebafd4f330 AVAX0.001948875 25
0xedfa405ee57d09da382158fb831cf0c32fc1fbedfa3ed847ccb8864c8389e2c6Swap Exact AVAX ...91082612022-01-04 3:23:21177 days 55 mins ago0x58ae17ae8761a6e4aca59803fa99788d22e9156aOUT Trader Joe: Router9 AVAX0.003134 25
0x2a6996ab63bbfbe08fa3507ba1df05a6622706cfe09f75730fa0d54b0a719236Stake91080992022-01-04 3:17:49177 days 1 hr ago0x58ae17ae8761a6e4aca59803fa99788d22e9156aOUT Wonderland: Staking Helper0 AVAX0.00648822 30
0x08a7fe94480eb62fa7c31660bae8da64390fc920663c1618b637a2f0da5f8340Approve91080292022-01-04 3:15:29177 days 1 hr ago0x58ae17ae8761a6e4aca59803fa99788d22e9156aOUT Wonderland: Time Token0 AVAX0.00139437 30
0xe3a16c08852f724496b305c84e6d85f3948f0e45a4e5410fc19d550e43f38944Swap AVAX For Ex...91079932022-01-04 3:14:15177 days 1 hr ago0x58ae17ae8761a6e4aca59803fa99788d22e9156aOUT Trader Joe: Router31.492534995747371 AVAX0.005218875 25
[ Download CSV Export 
Latest 7 internal transactions
Parent Txn Hash Block From To Value
0x8e3e0eccec183c75852baaffe452b9a86519a864bc5f6b2b62570b484e4c4095158698682022-06-11 1:44:5119 days 2 hrs ago Trader Joe: Router0x58ae17ae8761a6e4aca59803fa99788d22e9156a7.38557172056179489 AVAX
0x1d70bff8cbd275c496857393c4a69a45b27faf4e9c913d705d5f4871d062bb96158696792022-06-11 1:38:3319 days 2 hrs ago SushiSwap: Router0x58ae17ae8761a6e4aca59803fa99788d22e9156a37.478558428536486919 AVAX
0x12932daa145e307b387978496e46ad719c3570571c27b360bb3442240a9cec42158686802022-06-11 1:04:4819 days 3 hrs ago Trader Joe: Router0x58ae17ae8761a6e4aca59803fa99788d22e9156a26.199317336877565465 AVAX
0xe3a16c08852f724496b305c84e6d85f3948f0e45a4e5410fc19d550e43f3894491079932022-01-04 3:14:15177 days 1 hr ago Trader Joe: Router0x58ae17ae8761a6e4aca59803fa99788d22e9156a1.499301394344338279 AVAX
0x3e85ce3dcfd7d65ae62e0868ae63e96238890982573e5282722c7f522036356976140502021-11-30 6:55:32211 days 21 hrs ago 0xd0c23f8a3777d96e7561b0b5c5ce8b5afc0c2fa10x58ae17ae8761a6e4aca59803fa99788d22e9156a0.134941067260866417 AVAX
0x7b64cde172f2178f3dd07a443d8e43058140c32000506ab4154164463cf527d972705972021-11-22 7:09:36219 days 21 hrs ago Trader Joe: Router0x58ae17ae8761a6e4aca59803fa99788d22e9156a0.00006455854937844 AVAX
0xb2fd1d5f1e780465b34838d840108664efddb935a8c19e333a6b770bb163c3c272704472021-11-22 7:04:30219 days 21 hrs ago 0xd0c23f8a3777d96e7561b0b5c5ce8b5afc0c2fa10x58ae17ae8761a6e4aca59803fa99788d22e9156a1.314461353907821018 AVAX
[ Download CSV Export 
Loading

Contract Name:
0

Compiler Version
0

Optimization Enabled:
0

Other Settings:
-NA-
Block Transaction Gas Used Reward
Age Block Fee Address BC Fee Address Voting Power Jailed Incoming
Block Uncle Number Difficulty Gas Used Reward
Loading
Make sure to use the "Vote Down" button for any spammy posts, and the "Vote Up" for interesting conversations.